sensor_id;sensor_type;location;lat;lon;timestamp;pressure;altitude;pressure_sealevel;temperature;humidity
81397;BME280;70852;49.908;8.126;2023-11-22T00:00:55;100999.28;;;4.87;78.99
81397;BME280;70852;49.908;8.126;2023-11-22T00:03:20;100998.63;;;4.75;78.88
81397;BME280;70852;49.908;8.126;2023-11-22T00:05:46;101000.56;;;4.74;79.76
81397;BME280;70852;49.908;8.126;2023-11-22T00:08:14;100999.22;;;4.82;78.80
81397;BME280;70852;49.908;8.126;2023-11-22T00:10:39;101000.34;;;4.86;78.75
81397;BME280;70852;49.908;8.126;2023-11-22T00:13:05;101001.75;;;4.94;80.20
81397;BME280;70852;49.908;8.126;2023-11-22T00:15:30;101003.09;;;4.91;79.06
81397;BME280;70852;49.908;8.126;2023-11-22T00:17:58;101001.19;;;4.92;79.43
81397;BME280;70852;49.908;8.126;2023-11-22T00:20:23;101002.53;;;4.84;79.15
81397;BME280;70852;49.908;8.126;2023-11-22T00:22:48;101013.50;;;4.89;80.13
81397;BME280;70852;49.908;8.126;2023-11-22T00:25:15;101014.88;;;4.92;79.47
81397;BME280;70852;49.908;8.126;2023-11-22T00:27:40;101017.09;;;4.95;78.93
81397;BME280;70852;49.908;8.126;2023-11-22T00:30:07;101023.91;;;4.92;79.36
81397;BME280;70852;49.908;8.126;2023-11-22T00:32:35;101025.81;;;4.87;78.36
81397;BME280;70852;49.908;8.126;2023-11-22T00:35:02;101029.31;;;4.82;79.44
81397;BME280;70852;49.908;8.126;2023-11-22T00:37:30;101035.56;;;4.77;79.41
81397;BME280;70852;49.908;8.126;2023-11-22T00:39:55;101025.19;;;4.74;79.73
81397;BME280;70852;49.908;8.126;2023-11-22T00:42:24;101022.69;;;4.73;77.53
81397;BME280;70852;49.908;8.126;2023-11-22T00:44:57;101031.41;;;4.70;79.72
81397;BME280;70852;49.908;8.126;2023-11-22T00:47:22;101023.47;;;4.68;80.09
81397;BME280;70852;49.908;8.126;2023-11-22T00:49:48;101019.91;;;4.68;79.48
81397;BME280;70852;49.908;8.126;2023-11-22T00:52:16;101015.50;;;4.62;80.61
81397;BME280;70852;49.908;8.126;2023-11-22T00:54:44;101025.56;;;4.56;82.21
81397;BME280;70852;49.908;8.126;2023-11-22T00:57:14;101027.59;;;4.34;83.01
81397;BME280;70852;49.908;8.126;2023-11-22T00:59:39;101026.75;;;4.33;83.01
81397;BME280;70852;49.908;8.126;2023-11-22T01:02:04;101031.03;;;4.24;84.05
81397;BME280;70852;49.908;8.126;2023-11-22T01:04:32;101031.81;;;4.20;85.49
81397;BME280;70852;49.908;8.126;2023-11-22T01:07:00;101029.31;;;4.13;85.28
81397;BME280;70852;49.908;8.126;2023-11-22T01:09:26;101040.41;;;4.01;85.98
81397;BME280;70852;49.908;8.126;2023-11-22T01:11:56;101041.72;;;3.99;85.16
81397;BME280;70852;49.908;8.126;2023-11-22T01:14:21;101047.69;;;3.96;85.33
81397;BME280;70852;49.908;8.126;2023-11-22T01:16:49;101049.25;;;3.87;85.67
81397;BME280;70852;49.908;8.126;2023-11-22T01:19:14;101055.75;;;3.81;85.27
81397;BME280;70852;49.908;8.126;2023-11-22T01:21:39;101064.50;;;3.83;84.97
81397;BME280;70852;49.908;8.126;2023-11-22T01:24:09;101070.41;;;3.75;85.96
81397;BME280;70852;49.908;8.126;2023-11-22T01:26:35;101068.75;;;3.74;85.28
81397;BME280;70852;49.908;8.126;2023-11-22T01:29:02;101068.06;;;3.61;86.00
81397;BME280;70852;49.908;8.126;2023-11-22T01:31:28;101066.09;;;3.57;85.33
81397;BME280;70852;49.908;8.126;2023-11-22T01:33:54;101064.94;;;3.53;84.88
81397;BME280;70852;49.908;8.126;2023-11-22T01:36:24;101063.41;;;3.40;85.08
81397;BME280;70852;49.908;8.126;2023-11-22T01:38:51;101068.63;;;3.42;84.94
81397;BME280;70852;49.908;8.126;2023-11-22T01:41:17;101074.72;;;3.27;84.89
81397;BME280;70852;49.908;8.126;2023-11-22T01:43:45;101070.50;;;3.19;85.51
81397;BME280;70852;49.908;8.126;2023-11-22T01:48:49;101093.75;;;3.22;85.77
81397;BME280;70852;49.908;8.126;2023-11-22T01:51:17;101095.84;;;3.15;85.04
81397;BME280;70852;49.908;8.126;2023-11-22T01:53:48;101094.25;;;3.19;85.45
81397;BME280;70852;49.908;8.126;2023-11-22T01:56:14;101095.31;;;3.18;84.75
81397;BME280;70852;49.908;8.126;2023-11-22T01:58:41;101087.31;;;3.11;85.06
81397;BME280;70852;49.908;8.126;2023-11-22T02:01:07;101091.94;;;3.11;85.00
81397;BME280;70852;49.908;8.126;2023-11-22T02:03:36;101091.34;;;3.09;85.07
81397;BME280;70852;49.908;8.126;2023-11-22T02:06:05;101101.63;;;3.02;85.82
81397;BME280;70852;49.908;8.126;2023-11-22T02:08:30;101104.28;;;2.97;85.46
81397;BME280;70852;49.908;8.126;2023-11-22T02:11:00;101105.53;;;2.89;85.36
81397;BME280;70852;49.908;8.126;2023-11-22T02:13:30;101111.81;;;2.89;85.00
81397;BME280;70852;49.908;8.126;2023-11-22T02:15:57;101113.41;;;2.85;85.23
81397;BME280;70852;49.908;8.126;2023-11-22T02:18:25;101128.41;;;2.88;85.62
81397;BME280;70852;49.908;8.126;2023-11-22T02:20:55;101119.16;;;2.89;85.39
81397;BME280;70852;49.908;8.126;2023-11-22T02:23:20;101131.66;;;2.85;85.12
81397;BME280;70852;49.908;8.126;2023-11-22T02:25:47;101121.66;;;2.74;85.60
81397;BME280;70852;49.908;8.126;2023-11-22T02:28:21;101129.41;;;2.82;85.84
81397;BME280;70852;49.908;8.126;2023-11-22T02:30:48;101134.41;;;2.85;85.84
81397;BME280;70852;49.908;8.126;2023-11-22T02:33:16;101134.41;;;2.85;85.31
81397;BME280;70852;49.908;8.126;2023-11-22T02:35:41;101142.00;;;2.83;85.98
81397;BME280;70852;49.908;8.126;2023-11-22T02:38:07;101132.81;;;2.89;85.50
81397;BME280;70852;49.908;8.126;2023-11-22T02:40:32;101130.91;;;2.89;85.29
81397;BME280;70852;49.908;8.126;2023-11-22T02:43:00;101136.34;;;2.89;85.08
81397;BME280;70852;49.908;8.126;2023-11-22T02:45:33;101128.66;;;2.86;85.60
81397;BME280;70852;49.908;8.126;2023-11-22T02:47:59;101124.97;;;2.92;85.29
81397;BME280;70852;49.908;8.126;2023-11-22T02:50:27;101115.13;;;2.91;84.71
81397;BME280;70852;49.908;8.126;2023-11-22T02:52:54;101111.06;;;2.94;84.57
81397;BME280;70852;49.908;8.126;2023-11-22T02:55:19;101113.13;;;2.87;84.66
81397;BME280;70852;49.908;8.126;2023-11-22T02:57:45;101111.41;;;2.81;85.02
81397;BME280;70852;49.908;8.126;2023-11-22T03:00:11;101124.22;;;2.80;84.74
81397;BME280;70852;49.908;8.126;2023-11-22T03:02:38;101131.81;;;2.78;84.71
81397;BME280;70852;49.908;8.126;2023-11-22T03:05:09;101128.31;;;2.66;85.07
81397;BME280;70852;49.908;8.126;2023-11-22T03:07:35;101137.50;;;2.60;85.78
81397;BME280;70852;49.908;8.126;2023-11-22T03:10:06;101138.09;;;2.62;85.31
81397;BME280;70852;49.908;8.126;2023-11-22T03:12:33;101146.75;;;2.59;85.26
81397;BME280;70852;49.908;8.126;2023-11-22T03:14:58;101153.75;;;2.55;85.10
81397;BME280;70852;49.908;8.126;2023-11-22T03:17:28;101157.47;;;2.49;85.68
81397;BME280;70852;49.908;8.126;2023-11-22T03:19:57;101157.38;;;2.44;85.64
81397;BME280;70852;49.908;8.126;2023-11-22T03:22:29;101168.53;;;2.42;85.28
81397;BME280;70852;49.908;8.126;2023-11-22T03:24:58;101171.50;;;2.41;85.33
81397;BME280;70852;49.908;8.126;2023-11-22T03:27:26;101164.53;;;2.33;85.65
81397;BME280;70852;49.908;8.126;2023-11-22T03:29:51;101165.28;;;2.29;85.50
81397;BME280;70852;49.908;8.126;2023-11-22T03:32:19;101166.97;;;2.18;85.67
81397;BME280;70852;49.908;8.126;2023-11-22T03:34:47;101171.75;;;2.11;86.39
81397;BME280;70852;49.908;8.126;2023-11-22T03:37:14;101168.00;;;2.00;86.95
81397;BME280;70852;49.908;8.126;2023-11-22T03:39:40;101176.16;;;2.00;86.85
81397;BME280;70852;49.908;8.126;2023-11-22T03:42:10;101179.44;;;2.02;86.39
81397;BME280;70852;49.908;8.126;2023-11-22T03:44:38;101170.72;;;2.00;86.60
81397;BME280;70852;49.908;8.126;2023-11-22T03:47:06;101185.63;;;1.98;86.44
81397;BME280;70852;49.908;8.126;2023-11-22T03:49:31;101200.56;;;1.95;86.66
81397;BME280;70852;49.908;8.126;2023-11-22T03:51:57;101206.75;;;1.91;86.67
81397;BME280;70852;49.908;8.126;2023-11-22T03:54:25;101201.19;;;1.86;86.59
81397;BME280;70852;49.908;8.126;2023-11-22T03:56:50;101209.22;;;1.80;86.97
81397;BME280;70852;49.908;8.126;2023-11-22T03:59:20;101205.09;;;1.78;87.33
81397;BME280;70852;49.908;8.126;2023-11-22T04:01:48;101214.81;;;1.74;87.13
81397;BME280;70852;49.908;8.126;2023-11-22T04:04:13;101224.50;;;1.70;87.55
81397;BME280;70852;49.908;8.126;2023-11-22T04:06:39;101221.22;;;1.68;86.88
81397;BME280;70852;49.908;8.126;2023-11-22T04:09:04;101233.53;;;1.59;87.88
81397;BME280;70852;49.908;8.126;2023-11-22T04:11:30;101228.56;;;1.56;87.81
81397;BME280;70852;49.908;8.126;2023-11-22T04:13:56;101248.91;;;1.53;88.37
81397;BME280;70852;49.908;8.126;2023-11-22T04:16:24;101250.44;;;1.49;87.59
81397;BME280;70852;49.908;8.126;2023-11-22T04:18:49;101251.25;;;1.50;87.95
81397;BME280;70852;49.908;8.126;2023-11-22T04:21:17;101253.41;;;1.48;88.01
81397;BME280;70852;49.908;8.126;2023-11-22T04:23:42;101251.75;;;1.46;87.56
81397;BME280;70852;49.908;8.126;2023-11-22T04:26:07;101248.19;;;1.34;87.91
81397;BME280;70852;49.908;8.126;2023-11-22T04:28:33;101255.28;;;1.35;88.07
81397;BME280;70852;49.908;8.126;2023-11-22T04:31:02;101253.72;;;1.28;88.03
81397;BME280;70852;49.908;8.126;2023-11-22T04:33:27;101246.06;;;1.25;87.94
81397;BME280;70852;49.908;8.126;2023-11-22T04:35:55;101257.41;;;1.22;88.09
81397;BME280;70852;49.908;8.126;2023-11-22T04:38:25;101252.91;;;1.16;88.49
81397;BME280;70852;49.908;8.126;2023-11-22T04:40:53;101257.63;;;1.20;88.44
81397;BME280;70852;49.908;8.126;2023-11-22T04:43:18;101258.00;;;1.24;87.81
81397;BME280;70852;49.908;8.126;2023-11-22T04:45:48;101274.66;;;1.16;88.00
81397;BME280;70852;49.908;8.126;2023-11-22T04:48:16;101268.84;;;1.12;87.88
81397;BME280;70852;49.908;8.126;2023-11-22T04:50:44;101276.03;;;1.06;88.35
81397;BME280;70852;49.908;8.126;2023-11-22T04:53:11;101274.97;;;1.07;88.10
81397;BME280;70852;49.908;8.126;2023-11-22T04:55:39;101271.44;;;1.07;88.15
81397;BME280;70852;49.908;8.126;2023-11-22T04:58:04;101286.22;;;1.11;87.73
81397;BME280;70852;49.908;8.126;2023-11-22T05:00:32;101292.28;;;1.13;87.15
81397;BME280;70852;49.908;8.126;2023-11-22T05:02:57;101282.47;;;1.12;86.59
81397;BME280;70852;49.908;8.126;2023-11-22T05:05:22;101285.19;;;1.12;86.81
81397;BME280;70852;49.908;8.126;2023-11-22T05:07:48;101289.06;;;1.04;87.62
81397;BME280;70852;49.908;8.126;2023-11-22T05:10:18;101290.81;;;0.99;87.72
81397;BME280;70852;49.908;8.126;2023-11-22T05:12:43;101287.75;;;0.95;87.66
81397;BME280;70852;49.908;8.126;2023-11-22T05:15:12;101290.31;;;0.90;87.88
81397;BME280;70852;49.908;8.126;2023-11-22T05:17:39;101287.97;;;0.94;87.52
81397;BME280;70852;49.908;8.126;2023-11-22T05:20:07;101294.47;;;0.93;87.75
81397;BME280;70852;49.908;8.126;2023-11-22T05:22:37;101304.06;;;0.95;87.67
81397;BME280;70852;49.908;8.126;2023-11-22T05:25:05;101308.66;;;0.95;87.86
81397;BME280;70852;49.908;8.126;2023-11-22T05:27:34;101301.91;;;0.97;87.47
81397;BME280;70852;49.908;8.126;2023-11-22T05:29:59;101297.19;;;0.93;87.44
81397;BME280;70852;49.908;8.126;2023-11-22T05:32:26;101305.78;;;0.90;87.87
81397;BME280;70852;49.908;8.126;2023-11-22T05:34:54;101307.09;;;0.87;88.21
81397;BME280;70852;49.908;8.126;2023-11-22T05:37:22;101305.56;;;0.91;87.20
81397;BME280;70852;49.908;8.126;2023-11-22T05:39:50;101307.34;;;0.97;87.36
81397;BME280;70852;49.908;8.126;2023-11-22T05:42:15;101307.00;;;0.94;87.68
81397;BME280;70852;49.908;8.126;2023-11-22T05:44:40;101311.41;;;1.06;87.88
81397;BME280;70852;49.908;8.126;2023-11-22T05:47:08;101314.22;;;1.00;87.21
81397;BME280;70852;49.908;8.126;2023-11-22T05:49:36;101319.78;;;0.93;87.38
81397;BME280;70852;49.908;8.126;2023-11-22T05:52:01;101320.91;;;0.86;88.55
81397;BME280;70852;49.908;8.126;2023-11-22T05:54:27;101321.00;;;0.79;88.37
81397;BME280;70852;49.908;8.126;2023-11-22T05:56:52;101323.63;;;0.86;88.80
81397;BME280;70852;49.908;8.126;2023-11-22T05:59:19;101326.91;;;0.76;88.67
81397;BME280;70852;49.908;8.126;2023-11-22T06:01:45;101340.38;;;0.71;88.50
81397;BME280;70852;49.908;8.126;2023-11-22T06:04:15;101345.81;;;0.71;88.93
81397;BME280;70852;49.908;8.126;2023-11-22T06:06:40;101348.75;;;0.69;88.63
81397;BME280;70852;49.908;8.126;2023-11-22T06:09:08;101352.69;;;0.73;88.04
81397;BME280;70852;49.908;8.126;2023-11-22T06:11:37;101363.16;;;0.70;88.52
81397;BME280;70852;49.908;8.126;2023-11-22T06:14:04;101361.13;;;0.65;88.48
81397;BME280;70852;49.908;8.126;2023-11-22T06:16:30;101365.22;;;0.56;88.32
81397;BME280;70852;49.908;8.126;2023-11-22T06:18:55;101368.69;;;0.63;88.13
81397;BME280;70852;49.908;8.126;2023-11-22T06:21:23;101372.09;;;0.59;88.66
81397;BME280;70852;49.908;8.126;2023-11-22T06:23:52;101376.09;;;0.56;88.58
81397;BME280;70852;49.908;8.126;2023-11-22T06:26:22;101384.25;;;0.56;88.14
81397;BME280;70852;49.908;8.126;2023-11-22T06:28:50;101398.22;;;0.60;87.61
81397;BME280;70852;49.908;8.126;2023-11-22T06:31:15;101398.66;;;0.57;87.70
81397;BME280;70852;49.908;8.126;2023-11-22T06:33:43;101399.50;;;0.57;88.12
81397;BME280;70852;49.908;8.126;2023-11-22T06:36:09;101402.91;;;0.53;88.26
81397;BME280;70852;49.908;8.126;2023-11-22T06:38:39;101401.47;;;0.50;87.78
81397;BME280;70852;49.908;8.126;2023-11-22T06:41:04;101408.34;;;0.53;87.75
81397;BME280;70852;49.908;8.126;2023-11-22T06:43:34;101418.59;;;0.51;87.54
81397;BME280;70852;49.908;8.126;2023-11-22T06:46:00;101415.06;;;0.50;87.75
81397;BME280;70852;49.908;8.126;2023-11-22T06:48:30;101421.16;;;0.46;87.38
81397;BME280;70852;49.908;8.126;2023-11-22T06:50:58;101422.69;;;0.42;87.40
81397;BME280;70852;49.908;8.126;2023-11-22T06:53:23;101419.34;;;0.40;87.63
81397;BME280;70852;49.908;8.126;2023-11-22T06:55:50;101421.59;;;0.43;87.68
81397;BME280;70852;49.908;8.126;2023-11-22T06:58:18;101428.34;;;0.40;87.92
81397;BME280;70852;49.908;8.126;2023-11-22T07:00:46;101425.75;;;0.45;87.78
81397;BME280;70852;49.908;8.126;2023-11-22T07:03:11;101421.53;;;0.49;87.51
81397;BME280;70852;49.908;8.126;2023-11-22T07:05:37;101437.69;;;0.44;87.02
81397;BME280;70852;49.908;8.126;2023-11-22T07:08:03;101440.63;;;0.43;87.37
81397;BME280;70852;49.908;8.126;2023-11-22T07:10:29;101437.53;;;0.39;87.82
81397;BME280;70852;49.908;8.126;2023-11-22T07:13:01;101450.50;;;0.37;87.47
81397;BME280;70852;49.908;8.126;2023-11-22T07:15:29;101455.34;;;0.35;88.16
81397;BME280;70852;49.908;8.126;2023-11-22T07:17:54;101449.38;;;0.45;88.78
81397;BME280;70852;49.908;8.126;2023-11-22T07:20:20;101456.47;;;0.46;87.97
81397;BME280;70852;49.908;8.126;2023-11-22T07:22:46;101443.13;;;0.44;87.58
81397;BME280;70852;49.908;8.126;2023-11-22T07:25:14;101447.13;;;0.42;87.98
81397;BME280;70852;49.908;8.126;2023-11-22T07:27:46;101456.78;;;0.38;88.42
81397;BME280;70852;49.908;8.126;2023-11-22T07:30:13;101454.69;;;0.40;88.58
81397;BME280;70852;49.908;8.126;2023-11-22T07:32:41;101447.06;;;0.48;88.45
81397;BME280;70852;49.908;8.126;2023-11-22T07:35:11;101447.59;;;0.57;88.21
81397;BME280;70852;49.908;8.126;2023-11-22T07:37:39;101449.47;;;0.56;88.03
81397;BME280;70852;49.908;8.126;2023-11-22T07:40:10;101455.97;;;0.55;88.34
81397;BME280;70852;49.908;8.126;2023-11-22T07:42:41;101462.47;;;0.54;87.97
81397;BME280;70852;49.908;8.126;2023-11-22T07:45:12;101452.97;;;0.63;87.13
81397;BME280;70852;49.908;8.126;2023-11-22T07:47:41;101455.53;;;0.58;87.28
81397;BME280;70852;49.908;8.126;2023-11-22T07:50:11;101452.38;;;0.61;87.81
81397;BME280;70852;49.908;8.126;2023-11-22T07:52:37;101439.72;;;0.85;87.65
81397;BME280;70852;49.908;8.126;2023-11-22T07:55:09;101448.56;;;0.99;87.06
81397;BME280;70852;49.908;8.126;2023-11-22T07:57:38;101442.47;;;1.03;86.36
81397;BME280;70852;49.908;8.126;2023-11-22T08:00:04;101450.75;;;1.08;87.13
81397;BME280;70852;49.908;8.126;2023-11-22T08:02:33;101453.03;;;1.12;86.07
81397;BME280;70852;49.908;8.126;2023-11-22T08:04:58;101454.81;;;1.18;86.18
81397;BME280;70852;49.908;8.126;2023-11-22T08:07:27;101451.03;;;1.19;84.78
81397;BME280;70852;49.908;8.126;2023-11-22T08:09:55;101448.72;;;1.22;85.48
81397;BME280;70852;49.908;8.126;2023-11-22T08:12:20;101457.16;;;1.32;83.98
81397;BME280;70852;49.908;8.126;2023-11-22T08:14:50;101459.09;;;1.43;83.92
81397;BME280;70852;49.908;8.126;2023-11-22T08:17:20;101447.00;;;1.39;82.71
81397;BME280;70852;49.908;8.126;2023-11-22T08:19:46;101450.56;;;1.40;83.21
81397;BME280;70852;49.908;8.126;2023-11-22T08:22:16;101461.50;;;1.52;83.00
81397;BME280;70852;49.908;8.126;2023-11-22T08:24:42;101460.09;;;1.61;81.39
81397;BME280;70852;49.908;8.126;2023-11-22T08:27:10;101471.53;;;1.69;80.86
81397;BME280;70852;49.908;8.126;2023-11-22T08:29:37;101474.50;;;1.79;78.52
81397;BME280;70852;49.908;8.126;2023-11-22T08:32:03;101478.81;;;1.99;76.85
81397;BME280;70852;49.908;8.126;2023-11-22T08:34:31;101478.16;;;2.27;76.29
81397;BME280;70852;49.908;8.126;2023-11-22T08:36:56;101492.13;;;2.65;72.85
81397;BME280;70852;49.908;8.126;2023-11-22T08:39:24;101481.84;;;3.30;71.35
81397;BME280;70852;49.908;8.126;2023-11-22T08:41:52;101483.19;;;4.35;65.98
81397;BME280;70852;49.908;8.126;2023-11-22T08:44:17;101485.34;;;5.27;61.22
81397;BME280;70852;49.908;8.126;2023-11-22T08:46:42;101502.16;;;5.84;58.55
81397;BME280;70852;49.908;8.126;2023-11-22T08:49:07;101499.13;;;4.55;63.15
81397;BME280;70852;49.908;8.126;2023-11-22T08:51:35;101498.72;;;3.84;66.42
81397;BME280;70852;49.908;8.126;2023-11-22T08:54:03;101496.53;;;3.41;66.96
81397;BME280;70852;49.908;8.126;2023-11-22T08:56:29;101497.75;;;3.62;67.48
81397;BME280;70852;49.908;8.126;2023-11-22T08:58:57;101503.41;;;5.71;62.12
81397;BME280;70852;49.908;8.126;2023-11-22T09:01:22;101507.09;;;6.73;58.28
81397;BME280;70852;49.908;8.126;2023-11-22T09:03:47;101513.41;;;7.15;54.05
81397;BME280;70852;49.908;8.126;2023-11-22T09:06:15;101502.22;;;8.45;50.38
81397;BME280;70852;49.908;8.126;2023-11-22T09:08:43;101500.97;;;9.27;48.35
81397;BME280;70852;49.908;8.126;2023-11-22T09:11:11;101491.06;;;9.80;46.78
81397;BME280;70852;49.908;8.126;2023-11-22T09:13:41;101499.94;;;10.55;46.18
81397;BME280;70852;49.908;8.126;2023-11-22T09:16:08;101494.31;;;11.42;44.78
81397;BME280;70852;49.908;8.126;2023-11-22T09:18:36;101484.13;;;12.36;41.89
81397;BME280;70852;49.908;8.126;2023-11-22T09:21:01;101488.00;;;12.35;39.98
81397;BME280;70852;49.908;8.126;2023-11-22T09:23:27;101501.19;;;11.45;41.12
81397;BME280;70852;49.908;8.126;2023-11-22T09:25:55;101496.63;;;11.11;42.76
81397;BME280;70852;49.908;8.126;2023-11-22T09:28:20;101505.09;;;11.20;44.51
81397;BME280;70852;49.908;8.126;2023-11-22T09:30:46;101516.63;;;11.51;41.03
81397;BME280;70852;49.908;8.126;2023-11-22T09:33:15;101512.44;;;10.77;44.31
81397;BME280;70852;49.908;8.126;2023-11-22T09:35:44;101501.16;;;12.43;40.75
81397;BME280;70852;49.908;8.126;2023-11-22T09:38:13;101510.88;;;12.27;39.41
81397;BME280;70852;49.908;8.126;2023-11-22T09:40:46;101516.59;;;11.03;40.32
81397;BME280;70852;49.908;8.126;2023-11-22T09:43:13;101520.13;;;9.63;42.60
81397;BME280;70852;49.908;8.126;2023-11-22T09:45:42;101518.81;;;10.77;42.26
81397;BME280;70852;49.908;8.126;2023-11-22T09:48:21;101533.72;;;10.76;41.82
81397;BME280;70852;49.908;8.126;2023-11-22T09:51:03;101534.06;;;11.75;39.42
81397;BME280;70852;49.908;8.126;2023-11-22T09:53:41;101539.69;;;11.41;39.47
81397;BME280;70852;49.908;8.126;2023-11-22T09:56:11;101549.13;;;12.25;38.64
81397;BME280;70852;49.908;8.126;2023-11-22T09:58:42;101555.06;;;11.52;39.09
81397;BME280;70852;49.908;8.126;2023-11-22T10:01:13;101565.44;;;10.01;43.64
81397;BME280;70852;49.908;8.126;2023-11-22T10:03:39;101569.66;;;10.76;43.10
81397;BME280;70852;49.908;8.126;2023-11-22T10:06:07;101571.03;;;10.74;42.46
81397;BME280;70852;49.908;8.126;2023-11-22T10:08:35;101564.97;;;12.01;39.55
81397;BME280;70852;49.908;8.126;2023-11-22T10:11:06;101561.38;;;12.00;41.29
81397;BME280;70852;49.908;8.126;2023-11-22T10:13:34;101545.81;;;12.23;38.65
81397;BME280;70852;49.908;8.126;2023-11-22T10:16:10;101544.69;;;12.43;37.21
81397;BME280;70852;49.908;8.126;2023-11-22T10:18:46;101537.81;;;12.73;38.45
81397;BME280;70852;49.908;8.126;2023-11-22T10:21:27;101544.63;;;12.80;37.03
81397;BME280;70852;49.908;8.126;2023-11-22T10:23:56;101542.06;;;11.95;37.28
81397;BME280;70852;49.908;8.126;2023-11-22T10:26:22;101553.03;;;10.47;40.97
81397;BME280;70852;49.908;8.126;2023-11-22T10:28:50;101558.13;;;10.98;41.01
81397;BME280;70852;49.908;8.126;2023-11-22T10:31:19;101553.00;;;12.43;37.66
81397;BME280;70852;49.908;8.126;2023-11-22T10:33:45;101564.16;;;9.83;43.38
81397;BME280;70852;49.908;8.126;2023-11-22T10:36:10;101568.84;;;8.52;46.20
81397;BME280;70852;49.908;8.126;2023-11-22T10:38:41;101568.50;;;7.46;48.80
81397;BME280;70852;49.908;8.126;2023-11-22T10:41:08;101568.22;;;6.95;49.22
81397;BME280;70852;49.908;8.126;2023-11-22T10:43:37;101567.75;;;7.08;49.54
81397;BME280;70852;49.908;8.126;2023-11-22T10:46:03;101567.88;;;6.86;49.57
81397;BME280;70852;49.908;8.126;2023-11-22T10:48:35;101572.91;;;6.99;49.15
81397;BME280;70852;49.908;8.126;2023-11-22T10:51:04;101570.41;;;9.39;43.71
81397;BME280;70852;49.908;8.126;2023-11-22T10:53:36;101572.34;;;11.87;40.12
81397;BME280;70852;49.908;8.126;2023-11-22T10:56:07;101576.88;;;12.58;38.17
81397;BME280;70852;49.908;8.126;2023-11-22T10:58:58;101579.66;;;12.90;36.04
81397;BME280;70852;49.908;8.126;2023-11-22T11:01:27;101589.41;;;12.18;37.51
81397;BME280;70852;49.908;8.126;2023-11-22T11:04:02;101576.41;;;10.16;41.33
81397;BME280;70852;49.908;8.126;2023-11-22T11:06:33;101576.03;;;10.38;42.20
81397;BME280;70852;49.908;8.126;2023-11-22T11:09:00;101580.00;;;10.16;42.51
81397;BME280;70852;49.908;8.126;2023-11-22T11:11:28;101575.19;;;8.83;44.30
81397;BME280;70852;49.908;8.126;2023-11-22T11:13:57;101573.53;;;8.36;45.96
81397;BME280;70852;49.908;8.126;2023-11-22T11:16:23;101583.84;;;7.94;47.25
81397;BME280;70852;49.908;8.126;2023-11-22T11:18:49;101580.50;;;7.24;49.07
81397;BME280;70852;49.908;8.126;2023-11-22T11:21:18;101587.69;;;7.30;49.18
81397;BME280;70852;49.908;8.126;2023-11-22T11:23:46;101592.56;;;7.70;47.18
81397;BME280;70852;49.908;8.126;2023-11-22T11:26:19;101588.94;;;8.42;46.54
81397;BME280;70852;49.908;8.126;2023-11-22T11:28:49;101594.16;;;9.15;44.12
81397;BME280;70852;49.908;8.126;2023-11-22T11:31:20;101609.72;;;8.08;46.98
81397;BME280;70852;49.908;8.126;2023-11-22T11:33:54;101607.59;;;6.74;50.10
81397;BME280;70852;49.908;8.126;2023-11-22T11:38:53;101605.75;;;8.97;44.92
81397;BME280;70852;49.908;8.126;2023-11-22T11:41:28;101615.25;;;9.70;42.95
81397;BME280;70852;49.908;8.126;2023-11-22T11:43:55;101610.09;;;9.33;43.17
81397;BME280;70852;49.908;8.126;2023-11-22T11:46:25;101605.75;;;8.81;44.13
81397;BME280;70852;49.908;8.126;2023-11-22T11:48:53;101593.63;;;8.62;47.08
81397;BME280;70852;49.908;8.126;2023-11-22T11:51:25;101611.63;;;7.92;48.40
81397;BME280;70852;49.908;8.126;2023-11-22T11:53:54;101612.75;;;8.06;47.22
81397;BME280;70852;49.908;8.126;2023-11-22T11:56:20;101609.72;;;8.08;45.98
81397;BME280;70852;49.908;8.126;2023-11-22T11:58:50;101594.94;;;7.52;47.43
81397;BME280;70852;49.908;8.126;2023-11-22T12:01:17;101597.09;;;7.03;50.81
81397;BME280;70852;49.908;8.126;2023-11-22T12:03:43;101586.50;;;7.21;50.86
81397;BME280;70852;49.908;8.126;2023-11-22T12:06:15;101575.75;;;7.67;47.96
81397;BME280;70852;49.908;8.126;2023-11-22T12:08:41;101579.63;;;7.76;49.49
81397;BME280;70852;49.908;8.126;2023-11-22T12:11:09;101587.38;;;7.84;48.14
81397;BME280;70852;49.908;8.126;2023-11-22T12:13:36;101588.94;;;8.53;46.04
81397;BME280;70852;49.908;8.126;2023-11-22T12:16:15;101575.47;;;8.56;46.59
81397;BME280;70852;49.908;8.126;2023-11-22T12:18:49;101568.50;;;8.23;46.40
81397;BME280;70852;49.908;8.126;2023-11-22T12:21:16;101573.22;;;8.48;45.36
81397;BME280;70852;49.908;8.126;2023-11-22T12:23:42;101559.47;;;8.73;46.50
81397;BME280;70852;49.908;8.126;2023-11-22T12:26:12;101550.38;;;8.83;45.96
81397;BME280;70852;49.908;8.126;2023-11-22T12:28:41;101548.44;;;8.99;44.50
81397;BME280;70852;49.908;8.126;2023-11-22T12:31:10;101554.09;;;9.53;44.61
81397;BME280;70852;49.908;8.126;2023-11-22T12:33:36;101554.97;;;8.01;44.89
81397;BME280;70852;49.908;8.126;2023-11-22T12:36:09;101561.25;;;7.24;47.49
81397;BME280;70852;49.908;8.126;2023-11-22T12:38:42;101571.31;;;6.67;50.17
81397;BME280;70852;49.908;8.126;2023-11-22T12:41:10;101556.47;;;6.36;52.12
81397;BME280;70852;49.908;8.126;2023-11-22T12:43:36;101541.72;;;6.42;52.18
81397;BME280;70852;49.908;8.126;2023-11-22T12:46:05;101569.09;;;6.69;52.32
81397;BME280;70852;49.908;8.126;2023-11-22T12:48:39;101564.44;;;6.69;51.75
81397;BME280;70852;49.908;8.126;2023-11-22T12:51:17;101559.44;;;6.29;51.36
81397;BME280;70852;49.908;8.126;2023-11-22T12:53:54;101582.19;;;5.81;52.83
81397;BME280;70852;49.908;8.126;2023-11-22T12:56:24;101568.50;;;5.59;53.43
81397;BME280;70852;49.908;8.126;2023-11-22T12:58:53;101583.41;;;6.12;53.67
81397;BME280;70852;49.908;8.126;2023-11-22T13:01:24;101581.44;;;6.34;53.32
81397;BME280;70852;49.908;8.126;2023-11-22T13:03:49;101574.22;;;6.55;51.10
81397;BME280;70852;49.908;8.126;2023-11-22T13:06:21;101587.56;;;6.78;51.05
81397;BME280;70852;49.908;8.126;2023-11-22T13:08:49;101591.47;;;6.82;51.22